• Join FlightAware (Why Join?)
  • Login
  • US Flag 
09:09PM EDT


 

Airport Tracker/Info


-or-


 

Live Flight TrackerFlight Track Log ✈ ACA58 ✈ 02-Aug-2014 ✈ PHOG / OGG - CYVR

Flight Track Log - Related Links

Times and Time Zones

All times are in EDT time to prevent confusion due to time zone crossing. See the ACA58 flight status page for this flight to view local times or setup timezone preferences in your user account.

Time Position Orientation Groundspeed Altitude Reporting Facility
EDT Latitude Longitude Course Direction KTS MPH feet Rate Location/Type
02:50AM 20.9167 -156.4000 North 180 207 1,500  Level Honolulu Center
02:51AM 20.9833 -156.4167 347° North 250 288 3,700 2,400 Climbing Honolulu Center
02:52AM 21.0500 -156.4167 360° North 280 322 6,400 2,880 Climbing Honolulu Center
02:53AM 21.2814 -156.4021 North  Level FlightAware Approximate
02:53AM 21.1333 -156.4167 360° North 290 334 9,500  Level Honolulu Center
02:54AM 21.4142 -156.4000 North  Level FlightAware Approximate
02:54AM 21.2167 -156.4000 11° North 320 368 11,200  Level Honolulu Center
02:55AM 21.5472 -156.4000 North  Level FlightAware Approximate
02:56AM 21.6800 -156.3988 North  Level FlightAware Approximate
02:56AM 21.3333 -156.4000 360° North 390 449 12,900  Level Honolulu Center
02:57AM 21.4333 -156.4000 360° North 400 460 16,000 2,820 Climbing Honolulu Center
02:58AM 21.5500 -156.4000 360° North 410 472 18,600 2,340 Climbing Honolulu Center
02:59AM 21.6667 -156.4000 360° North 430 495 20,700 1,800 Climbing Honolulu Center
03:00AM 21.7833 -156.3833 North 460 529 22,300 1,740 Climbing Honolulu Center
03:01AM 21.9000 -156.3833 360° North 460 529 24,200 1,680 Climbing Honolulu Center
03:02AM 22.0333 -156.3833 360° North 480 552 25,700 1,620 Climbing Honolulu Center
03:03AM 22.1833 -156.3833 360° North 490 564 27,500 2,100 Climbing Honolulu Center
03:04AM 22.3167 -156.3667 North 480 552 30,000 1,860 Climbing Honolulu Center
03:05AM 22.4500 -156.3667 360° North 480 552 31,300 1,440 Climbing Honolulu Center
03:06AM 22.5833 -156.3667 360° North 470 541 33,000 840 Climbing Honolulu Center
03:07AM 22.7167 -156.3667 360° North 490 564 33,000  Level Honolulu Center
03:08AM 22.8500 -156.3833 353° North 480 552 33,000  Level Honolulu Center
03:09AM 22.9833 -156.3833 360° North 480 552 33,000  Level Honolulu Center
03:10AM 23.1167 -156.3833 360° North 490 564 33,000  Level Honolulu Center
03:11AM 23.2500 -156.3833 360° North 480 552 33,000  Level Honolulu Center
03:12AM 23.3833 -156.3833 360° North 460 529 33,000  Level Honolulu Center
03:13AM 23.5167 -156.3833 360° North 490 564 33,000  Level Honolulu Center
03:14AM 23.6500 -156.3833 360° North 480 552 33,000  Level Honolulu Center
03:15AM 23.7833 -156.3833 360° North 470 541 33,000  Level Honolulu Center
03:24AM 24.9500 -156.4000 357° North 476 548 33,000  Level Oakland Oceanic (ODAPS)
03:26AM 25.0500 -156.4000 354° North 474 545 33,000  Level Oakland Oceanic (ODAPS)
03:26AM 25.2167 -156.4000 35° Northeast 474 545 33,000  Level Oakland Oceanic (ODAPS)
03:27AM 25.4000 -156.2667 35° Northeast 486 559 33,000  Level Oakland Oceanic (ODAPS)
03:41AM 27.0000 -155.0000 30° Northeast 475 547 33,000  Level Oakland Oceanic (ODAPS)
03:53AM 28.3667 -154.1000 30° Northeast 476 548 33,000  Level Oakland Oceanic (ODAPS)
04:08AM 30.0000 -153.0000 32° Northeast 477 549 33,000 60 Level Oakland Oceanic (ODAPS)
04:20AM 31.3667 -152.0167 32° Northeast 475 547 35,000 60 Climbing Oakland Oceanic (ODAPS)
04:38AM 33.3667 -150.5000 33° Northeast 510 587 35,000  Level Oakland Oceanic (ODAPS)
04:45AM 34.0000 -150.0000 37° Northeast 484 557 35,000  Level Oakland Oceanic (ODAPS)
04:47AM 34.2333 -149.7833 37° Northeast 487 560 35,000  Level Oakland Oceanic (ODAPS)
05:13AM 36.9500 -147.1500 39° Northeast 486 559 35,000  Level Oakland Oceanic (ODAPS)
05:33AM 39.0000 -145.0000 42° Northeast 498 573 35,000  Level Oakland Oceanic (ODAPS)
05:34AM 39.1000 -144.8833 42° Northeast 500 575 35,000  Level Oakland Oceanic (ODAPS)
05:40AM 39.6500 -144.2333 42° Northeast 502 578 35,000  Level Oakland Oceanic (ODAPS)
06:07AM 42.3333 -140.9000 44° Northeast 506 582 35,000  Level Oakland Oceanic (ODAPS)
06:13AM 43.0000 -140.0000 53° Northeast 492 566 35,000  Level Oakland Oceanic (ODAPS)
06:33AM 44.6167 -136.8667 55° Northeast 482 555 35,000  Level Oakland Oceanic (ODAPS)
07:00AM 46.5833 -132.5333 58° Northeast 478 550 35,000  Level Oakland Oceanic (ODAPS)
07:13AM 47.4500 -130.3833 61° Northeast 450 518 35,000  Level Vancouver Center
07:14AM 47.5078 -130.2634 60° Northeast 478 550 35,000  Level FlightAware Transoceanic
07:14AM 47.5167 -130.2000 62° Northeast 460 529 35,000  Level Vancouver Center
07:15AM 47.5721 -130.0982 60° Northeast 478 550 35,000  Level FlightAware Transoceanic
07:15AM 47.5833 -130.0667 53° Northeast 470 541 35,000  Level Vancouver Center
07:16AM 47.6362 -129.9326 60° Northeast 478 550 35,000  Level FlightAware Transoceanic
07:16AM 47.6333 -129.9000 66° East 470 541 35,000  Level Vancouver Center
07:17AM 47.7000 -129.7667 61° Northeast 478 550 35,000  Level FlightAware Transoceanic
07:17AM 47.7000 -129.7000 64° Northeast 470 541 35,000  Level Vancouver Center
07:18AM 47.7645 -129.5919 61° Northeast 478 550 35,000  Level FlightAware Transoceanic
07:18AM 47.7667 -129.5333 59° Northeast 470 541 35,000  Level Vancouver Center
07:19AM 47.8333 -129.3667 59° Northeast 480 552 35,000  Level Vancouver Center
07:20AM 47.9000 -129.2000 59° Northeast 470 541 35,000  Level Vancouver Center
07:26AM 48.2871 -128.1311 62° Northeast 472 543 35,000  Level FlightAware ADS-B (KPFC)
07:27AM 48.3210 -128.0352 62° Northeast 472 543 35,000  Level FlightAware ADS-B (KPFC)
07:28AM 48.3868 -127.8362 65° Northeast 475 547 35,000  Level FlightAware ADS-B (KPFC)
07:29AM 48.4238 -127.7195 64° Northeast 476 548 35,000  Level FlightAware ADS-B (KPFC)
07:29AM 48.4617 -127.6013 64° Northeast 477 549 35,000  Level FlightAware ADS-B (KPFC)
07:30AM 48.4909 -127.5098 64° Northeast 478 550 35,000  Level FlightAware ADS-B (KPFC)
07:30AM 48.5218 -127.4131 64° Northeast 478 550 35,000  Level FlightAware ADS-B (KPFC)
07:31AM 48.5633 -127.2827 65° Northeast 475 547 35,000  Level FlightAware ADS-B (KPFC)
07:32AM 48.5931 -127.1883 65° Northeast 475 547 35,000  Level FlightAware ADS-B (KPFC)
07:33AM 48.6508 -127.0043 65° Northeast 479 551 35,000  Level FlightAware ADS-B (KPFC)
07:34AM 48.7094 -126.8164 65° Northeast 481 554 35,000  Level FlightAware ADS-B (KPFC)
07:34AM 48.7466 -126.6964 65° Northeast 481 554 35,000 -120 Level FlightAware ADS-B (KPFC)
07:35AM 48.7816 -126.5829 65° Northeast 477 549 34,900 -900 Descending FlightAware ADS-B (KPFC)
07:36AM 48.8714 -126.2886 66° East 475 547 33,000 -1,380 Descending FlightAware ADS-B (KPFC)
07:37AM 48.9104 -126.1598 66° East 475 547 31,900 -2,100 Descending FlightAware ADS-B (KPFC)
07:39AM 48.9896 -125.8968 66° East 454 522 28,500 -2,340 Descending FlightAware ADS-B (CYVR)
07:39AM 49.0286 -125.7656 66° East 443 510 26,700 -2,280 Descending FlightAware ADS-B (CYVR)
07:40AM 49.0418 -125.7060 78° East 441 507 25,800 -2,340 Descending FlightAware ADS-B (CYVR)
07:40AM 49.0491 -125.5986 88° East 436 502 24,600 -2,340 Descending FlightAware ADS-B (CYVR)
07:41AM 49.0516 -125.5064 88° East 429 494 23,500 -2,220 Descending FlightAware ADS-B (CYVR)
07:41AM 49.0533 -125.4147 88° East 424 488 22,400 -2,220 Descending FlightAware ADS-B (CYVR)
07:42AM 49.0549 -125.3265 88° East 418 481 21,300 -2,280 Descending FlightAware ADS-B (CYVR)
07:42AM 49.0566 -125.2356 89° East 413 475 20,100 -2,280 Descending FlightAware ADS-B (CYVR)
07:43AM 49.0581 -125.1514 89° East 408 470 19,000 -2,100 Descending FlightAware ADS-B (CYVR)
07:43AM 49.0598 -125.0565 89° East 404 465 17,900 -2,220 Descending FlightAware ADS-B (CYVR)
07:44AM 49.0617 -124.9457 90° East 401 461 16,400 -2,040 Descending FlightAware ADS-B (KPFC)
07:46AM 49.0910 -124.7049 67° East 378 435 13,600 -1,920 Descending FlightAware ADS-B (CYVR)
07:46AM 49.1148 -124.6230 66° East 371 427 12,400 -2,100 Descending FlightAware ADS-B (CYVR)
07:47AM 49.1462 -124.5166 66° East 354 407 10,500 -1,560 Descending FlightAware ADS-B (CYVR)
07:48AM 49.1723 -124.4274 66° East 326 375 10,200 -600 Descending FlightAware ADS-B (CYVR)
07:48AM 49.1871 -124.3767 66° East 305 351 10,000 -720 Descending FlightAware ADS-B (CYCD)
07:48AM 49.1955 -124.3478 66° East 294 338 9,800 -1,200 Descending FlightAware ADS-B (CYCD)
07:49AM 49.2067 -124.3090 66° East 293 337 9,300 -1,200 Descending FlightAware ADS-B (CYCD)
07:49AM 49.2125 -124.2891 66° East 292 336 9,100 -1,080 Descending FlightAware ADS-B (CYVR)
07:49AM 49.2233 -124.2519 66° East 287 330 8,700 -1,020 Descending FlightAware ADS-B (CYVR)
07:49AM 49.2305 -124.2263 66° East 283 326 8,600 -720 Descending FlightAware ADS-B (CYCD)
07:50AM 49.2387 -124.1974 67° East 281 323 8,400 -840 Descending FlightAware ADS-B (CYCD)
07:50AM 49.2444 -124.1773 67° East 281 323 8,200 -720 Descending FlightAware ADS-B (CYVR)
07:50AM 49.2543 -124.1424 67° East 280 322 8,000 -780 Descending FlightAware ADS-B (CYVR)
07:50AM 49.2648 -124.1054 67° East 279 321 7,700 -780 Descending FlightAware ADS-B (CYVR)
07:51AM 49.2753 -124.0679 67° East 278 320 7,500 -840 Descending FlightAware ADS-B (CYVR)
07:51AM 49.2797 -124.0429 82° East 279 321 7,300 -1,320 Descending FlightAware ADS-B (CYCD)
07:51AM 49.2803 -124.0317 88° East 279 321 7,200 -900 Descending FlightAware ADS-B (CYCD)
07:51AM 49.2797 -124.0152 97° East 279 321 7,100 -480 Descending FlightAware ADS-B (CYCD)
07:51AM 49.2788 -124.0054 100° East 279 321 7,100 -600 Level FlightAware ADS-B (CYCD)
07:52AM 49.2757 -123.9746 98° East 279 321 6,900 -900 Descending FlightAware ADS-B (CYCD)
07:52AM 49.2749 -123.9658 99° East 279 321 6,800 -900 Descending FlightAware ADS-B (CYCD)
07:52AM 49.2719 -123.9376 100° East 278 320 6,600 -600 Descending FlightAware ADS-B (CYCD)
07:52AM 49.2687 -123.9089 100° East 277 319 6,500 -660 Descending FlightAware ADS-B (CYVR)
07:52AM 49.2643 -123.8701 100° East 276 318 6,200 -780 Descending FlightAware ADS-B (CYVR)
07:53AM 49.2606 -123.8366 100° East 276 318 6,000 -840 Descending FlightAware ADS-B (CYVR)
07:53AM 49.2557 -123.7935 102° East 275 316 5,700 -720 Descending FlightAware ADS-B (CYCD)
07:53AM 49.2518 -123.7650 100° East 274 315 5,600 -660 Descending FlightAware ADS-B (CYVR)
07:54AM 49.2476 -123.7264 99° East 271 312 5,300 -840 Descending FlightAware ADS-B (CYVR)
07:54AM 49.2436 -123.6876 99° East 261 300 5,100 -720 Descending FlightAware ADS-B (CYCD)
07:54AM 49.2412 -123.6647 100° East 256 295 4,900 -660 Descending FlightAware ADS-B (CYVR)
07:55AM 49.2372 -123.6290 99° East 244 281 4,700 -780 Descending FlightAware ADS-B (CYVR)
07:55AM 49.2346 -123.6052 100° East 236 272 4,500 -720 Descending FlightAware ADS-B (CYCD)
07:55AM 49.2315 -123.5773 100° East 228 262 4,400 -600 Descending FlightAware ADS-B (CYCD)
07:55AM 49.2289 -123.5533 100° East 225 259 4,200 -540 Descending FlightAware ADS-B (CYCD)
07:56AM 49.2263 -123.5301 100° East 227 261 4,100 -1,080 Descending FlightAware ADS-B (CYVR)
07:56AM 49.2235 -123.5046 100° East 228 262 3,600 -1,560 Descending FlightAware ADS-B (CYCD)
07:56AM 49.2201 -123.4746 100° East 229 264 3,300 -1,020 Descending FlightAware ADS-B (CYCD)
07:56AM 49.2177 -123.4523 100° East 225 259 3,100 -1,080 Descending FlightAware ADS-B (CYCD)
07:57AM 49.2140 -123.4196 100° East 221 254 2,700 -1,080 Descending FlightAware ADS-B (CYCD)
07:58AM 49.2069 -123.3561 100° East 185 213 1,900 -960 Descending FlightAware ADS-B (CYVR)
07:58AM 49.2033 -123.3247 100° East 166 191 1,500 -960 Descending FlightAware ADS-B (CYVR)
07:58AM 49.2016 -123.3093 100° East 163 188 1,200 -900 Descending FlightAware ADS-B (CYVR)
07:59AM 49.1980 -123.2774 100° East 157 181 900 -960 Descending FlightAware ADS-B (CYVR)
07:59AM 49.1959 -123.2592 100° East 158 182 600 -960 Descending FlightAware ADS-B (CYVR)
07:59AM 49.1931 -123.2346 101° East 151 174 300 -720 Descending FlightAware ADS-B (CYVR)
08:00AM 49.1916 -123.2214 99° East 143 165 100 -600 Descending FlightAware ADS-B (CYVR)